sensor_id;sensor_type;location;lat;lon;timestamp;P1;durP1;ratioP1;P2;durP2;ratioP2
69161;SDS011;56269;51.738;21.652;2023-05-21T00:00:36;9.48;;;4.00;;
69161;SDS011;56269;51.738;21.652;2023-05-21T00:03:22;10.00;;;4.00;;
69161;SDS011;56269;51.738;21.652;2023-05-21T00:05:51;8.02;;;3.80;;
69161;SDS011;56269;51.738;21.652;2023-05-21T00:08:18;9.90;;;4.38;;
69161;SDS011;56269;51.738;21.652;2023-05-21T00:10:44;11.63;;;4.10;;
69161;SDS011;56269;51.738;21.652;2023-05-21T00:13:10;9.75;;;4.30;;
69161;SDS011;56269;51.738;21.652;2023-05-21T00:15:36;8.10;;;4.03;;
69161;SDS011;56269;51.738;21.652;2023-05-21T00:18:03;9.00;;;4.18;;
69161;SDS011;56269;51.738;21.652;2023-05-21T00:20:29;10.18;;;4.40;;
69161;SDS011;56269;51.738;21.652;2023-05-21T00:22:57;11.30;;;4.32;;
69161;SDS011;56269;51.738;21.652;2023-05-21T00:25:24;9.63;;;4.10;;
69161;SDS011;56269;51.738;21.652;2023-05-21T00:27:50;8.63;;;3.90;;
69161;SDS011;56269;51.738;21.652;2023-05-21T00:30:16;10.30;;;4.30;;
69161;SDS011;56269;51.738;21.652;2023-05-21T00:32:42;9.55;;;4.50;;
69161;SDS011;56269;51.738;21.652;2023-05-21T00:35:08;9.25;;;4.32;;
69161;SDS011;56269;51.738;21.652;2023-05-21T00:37:37;9.23;;;3.93;;
69161;SDS011;56269;51.738;21.652;2023-05-21T00:40:06;7.75;;;3.83;;
69161;SDS011;56269;51.738;21.652;2023-05-21T00:42:33;8.73;;;4.20;;
69161;SDS011;56269;51.738;21.652;2023-05-21T00:45:04;8.85;;;4.13;;
69161;SDS011;56269;51.738;21.652;2023-05-21T00:47:32;9.57;;;4.05;;
69161;SDS011;56269;51.738;21.652;2023-05-21T00:50:00;8.70;;;4.10;;
69161;SDS011;56269;51.738;21.652;2023-05-21T00:52:28;10.30;;;4.15;;
69161;SDS011;56269;51.738;21.652;2023-05-21T00:54:54;8.77;;;4.13;;
69161;SDS011;56269;51.738;21.652;2023-05-21T00:57:21;10.60;;;4.18;;
69161;SDS011;56269;51.738;21.652;2023-05-21T00:59:50;9.95;;;4.13;;
69161;SDS011;56269;51.738;21.652;2023-05-21T01:02:18;9.67;;;3.50;;
69161;SDS011;56269;51.738;21.652;2023-05-21T01:04:44;8.63;;;3.92;;
69161;SDS011;56269;51.738;21.652;2023-05-21T01:07:11;8.05;;;4.03;;
69161;SDS011;56269;51.738;21.652;2023-05-21T01:09:38;8.05;;;4.13;;
69161;SDS011;56269;51.738;21.652;2023-05-21T01:12:08;9.07;;;4.10;;
69161;SDS011;56269;51.738;21.652;2023-05-21T01:14:36;8.63;;;3.93;;
69161;SDS011;56269;51.738;21.652;2023-05-21T01:17:02;9.52;;;4.30;;
69161;SDS011;56269;51.738;21.652;2023-05-21T01:19:30;11.30;;;4.40;;
69161;SDS011;56269;51.738;21.652;2023-05-21T01:22:02;7.90;;;3.83;;
69161;SDS011;56269;51.738;21.652;2023-05-21T01:24:30;10.20;;;4.22;;
69161;SDS011;56269;51.738;21.652;2023-05-21T01:26:57;10.63;;;4.47;;
69161;SDS011;56269;51.738;21.652;2023-05-21T01:29:23;8.27;;;4.03;;
69161;SDS011;56269;51.738;21.652;2023-05-21T01:34:21;12.13;;;4.30;;
69161;SDS011;56269;51.738;21.652;2023-05-21T01:36:54;8.18;;;4.00;;
69161;SDS011;56269;51.738;21.652;2023-05-21T01:39:32;8.00;;;4.10;;
69161;SDS011;56269;51.738;21.652;2023-05-21T01:42:04;10.05;;;4.18;;
69161;SDS011;56269;51.738;21.652;2023-05-21T01:44:33;11.25;;;4.53;;
69161;SDS011;56269;51.738;21.652;2023-05-21T01:47:01;11.75;;;4.10;;
69161;SDS011;56269;51.738;21.652;2023-05-21T01:49:28;7.63;;;3.90;;
69161;SDS011;56269;51.738;21.652;2023-05-21T01:51:55;10.97;;;4.50;;
69161;SDS011;56269;51.738;21.652;2023-05-21T01:54:21;9.40;;;4.30;;
69161;SDS011;56269;51.738;21.652;2023-05-21T01:56:49;14.13;;;4.40;;
69161;SDS011;56269;51.738;21.652;2023-05-21T01:59:15;9.82;;;3.90;;
69161;SDS011;56269;51.738;21.652;2023-05-21T02:01:42;8.57;;;4.28;;
69161;SDS011;56269;51.738;21.652;2023-05-21T02:04:08;9.10;;;4.20;;
69161;SDS011;56269;51.738;21.652;2023-05-21T02:06:37;9.30;;;4.07;;
69161;SDS011;56269;51.738;21.652;2023-05-21T02:09:04;9.63;;;4.18;;
69161;SDS011;56269;51.738;21.652;2023-05-21T02:11:30;9.05;;;4.25;;
69161;SDS011;56269;51.738;21.652;2023-05-21T02:13:56;9.30;;;4.28;;
69161;SDS011;56269;51.738;21.652;2023-05-21T02:16:26;9.10;;;3.73;;
69161;SDS011;56269;51.738;21.652;2023-05-21T02:18:52;7.60;;;3.92;;
69161;SDS011;56269;51.738;21.652;2023-05-21T02:21:22;12.25;;;4.47;;
69161;SDS011;56269;51.738;21.652;2023-05-21T02:23:48;7.45;;;3.78;;
69161;SDS011;56269;51.738;21.652;2023-05-21T02:26:15;8.88;;;3.83;;
69161;SDS011;56269;51.738;21.652;2023-05-21T02:28:42;7.57;;;3.95;;
69161;SDS011;56269;51.738;21.652;2023-05-21T02:31:09;8.60;;;4.03;;
69161;SDS011;56269;51.738;21.652;2023-05-21T02:33:38;8.00;;;3.80;;
69161;SDS011;56269;51.738;21.652;2023-05-21T02:36:08;10.90;;;4.03;;
69161;SDS011;56269;51.738;21.652;2023-05-21T02:38:38;9.13;;;3.92;;
69161;SDS011;56269;51.738;21.652;2023-05-21T02:41:09;9.18;;;4.22;;
69161;SDS011;56269;51.738;21.652;2023-05-21T02:43:35;10.10;;;4.32;;
69161;SDS011;56269;51.738;21.652;2023-05-21T02:46:03;8.50;;;4.25;;
69161;SDS011;56269;51.738;21.652;2023-05-21T02:48:30;10.27;;;4.67;;
69161;SDS011;56269;51.738;21.652;2023-05-21T02:50:57;10.68;;;4.05;;
69161;SDS011;56269;51.738;21.652;2023-05-21T02:53:23;12.73;;;4.10;;
69161;SDS011;56269;51.738;21.652;2023-05-21T02:55:50;8.68;;;4.30;;
69161;SDS011;56269;51.738;21.652;2023-05-21T02:58:16;11.17;;;4.27;;
69161;SDS011;56269;51.738;21.652;2023-05-21T03:00:42;8.73;;;4.07;;
69161;SDS011;56269;51.738;21.652;2023-05-21T03:03:08;11.63;;;4.35;;
69161;SDS011;56269;51.738;21.652;2023-05-21T03:05:34;8.50;;;4.22;;
69161;SDS011;56269;51.738;21.652;2023-05-21T03:08:00;9.90;;;4.18;;
69161;SDS011;56269;51.738;21.652;2023-05-21T03:10:28;15.50;;;4.40;;
69161;SDS011;56269;51.738;21.652;2023-05-21T03:12:54;7.88;;;4.05;;
69161;SDS011;56269;51.738;21.652;2023-05-21T03:15:21;7.85;;;3.97;;
69161;SDS011;56269;51.738;21.652;2023-05-21T03:17:49;7.97;;;3.85;;
69161;SDS011;56269;51.738;21.652;2023-05-21T03:20:15;8.48;;;3.78;;
69161;SDS011;56269;51.738;21.652;2023-05-21T03:22:43;8.80;;;4.30;;
69161;SDS011;56269;51.738;21.652;2023-05-21T03:25:10;8.68;;;4.05;;
69161;SDS011;56269;51.738;21.652;2023-05-21T03:27:37;8.20;;;3.78;;
69161;SDS011;56269;51.738;21.652;2023-05-21T03:30:05;11.73;;;4.07;;
69161;SDS011;56269;51.738;21.652;2023-05-21T03:32:31;7.53;;;3.70;;
69161;SDS011;56269;51.738;21.652;2023-05-21T03:35:03;9.00;;;3.93;;
69161;SDS011;56269;51.738;21.652;2023-05-21T03:37:29;9.50;;;4.57;;
69161;SDS011;56269;51.738;21.652;2023-05-21T03:39:56;8.60;;;3.88;;
69161;SDS011;56269;51.738;21.652;2023-05-21T03:42:22;9.85;;;4.10;;
69161;SDS011;56269;51.738;21.652;2023-05-21T03:44:48;7.88;;;4.00;;
69161;SDS011;56269;51.738;21.652;2023-05-21T03:47:14;8.20;;;4.00;;
69161;SDS011;56269;51.738;21.652;2023-05-21T03:49:42;9.00;;;3.72;;
69161;SDS011;56269;51.738;21.652;2023-05-21T03:52:08;7.85;;;3.85;;
69161;SDS011;56269;51.738;21.652;2023-05-21T03:54:34;8.02;;;3.97;;
69161;SDS011;56269;51.738;21.652;2023-05-21T03:57:01;8.65;;;3.85;;
69161;SDS011;56269;51.738;21.652;2023-05-21T03:59:27;8.93;;;4.10;;
69161;SDS011;56269;51.738;21.652;2023-05-21T04:01:53;7.95;;;4.03;;
69161;SDS011;56269;51.738;21.652;2023-05-21T04:04:20;7.53;;;3.78;;
69161;SDS011;56269;51.738;21.652;2023-05-21T04:06:46;7.53;;;3.60;;
69161;SDS011;56269;51.738;21.652;2023-05-21T04:09:13;7.77;;;3.90;;
69161;SDS011;56269;51.738;21.652;2023-05-21T04:11:39;7.35;;;3.65;;
69161;SDS011;56269;51.738;21.652;2023-05-21T04:14:05;9.85;;;3.70;;
69161;SDS011;56269;51.738;21.652;2023-05-21T04:16:31;11.45;;;3.70;;
69161;SDS011;56269;51.738;21.652;2023-05-21T04:19:00;7.70;;;3.63;;
69161;SDS011;56269;51.738;21.652;2023-05-21T04:21:26;7.43;;;3.60;;
69161;SDS011;56269;51.738;21.652;2023-05-21T04:23:52;9.73;;;3.50;;
69161;SDS011;56269;51.738;21.652;2023-05-21T04:26:18;10.25;;;3.80;;
69161;SDS011;56269;51.738;21.652;2023-05-21T04:28:44;7.55;;;3.50;;
69161;SDS011;56269;51.738;21.652;2023-05-21T04:31:10;10.85;;;3.60;;
69161;SDS011;56269;51.738;21.652;2023-05-21T04:33:38;8.00;;;3.30;;
69161;SDS011;56269;51.738;21.652;2023-05-21T04:36:06;8.05;;;3.20;;
69161;SDS011;56269;51.738;21.652;2023-05-21T04:38:35;7.57;;;3.30;;
69161;SDS011;56269;51.738;21.652;2023-05-21T04:41:02;9.43;;;3.40;;
69161;SDS011;56269;51.738;21.652;2023-05-21T04:43:28;7.68;;;3.15;;
69161;SDS011;56269;51.738;21.652;2023-05-21T04:45:54;6.57;;;2.83;;
69161;SDS011;56269;51.738;21.652;2023-05-21T04:48:21;6.88;;;3.17;;
69161;SDS011;56269;51.738;21.652;2023-05-21T04:50:49;7.25;;;3.20;;
69161;SDS011;56269;51.738;21.652;2023-05-21T04:53:15;7.35;;;3.20;;
69161;SDS011;56269;51.738;21.652;2023-05-21T04:55:41;8.55;;;3.30;;
69161;SDS011;56269;51.738;21.652;2023-05-21T04:58:08;9.63;;;3.00;;
69161;SDS011;56269;51.738;21.652;2023-05-21T05:00:37;7.75;;;3.50;;
69161;SDS011;56269;51.738;21.652;2023-05-21T05:03:03;5.97;;;3.13;;
69161;SDS011;56269;51.738;21.652;2023-05-21T05:05:30;7.63;;;3.05;;
69161;SDS011;56269;51.738;21.652;2023-05-21T05:07:56;11.10;;;3.30;;
69161;SDS011;56269;51.738;21.652;2023-05-21T05:10:22;8.43;;;3.10;;
69161;SDS011;56269;51.738;21.652;2023-05-21T05:12:49;6.72;;;2.80;;
69161;SDS011;56269;51.738;21.652;2023-05-21T05:15:15;8.80;;;3.20;;
69161;SDS011;56269;51.738;21.652;2023-05-21T05:17:41;8.85;;;3.35;;
69161;SDS011;56269;51.738;21.652;2023-05-21T05:20:08;7.05;;;3.38;;
69161;SDS011;56269;51.738;21.652;2023-05-21T05:22:37;7.27;;;3.10;;
69161;SDS011;56269;51.738;21.652;2023-05-21T05:25:04;8.15;;;2.90;;
69161;SDS011;56269;51.738;21.652;2023-05-21T05:27:31;8.05;;;3.17;;
69161;SDS011;56269;51.738;21.652;2023-05-21T05:29:57;5.18;;;2.30;;
69161;SDS011;56269;51.738;21.652;2023-05-21T05:32:23;7.28;;;3.00;;
69161;SDS011;56269;51.738;21.652;2023-05-21T05:34:51;7.20;;;3.03;;
69161;SDS011;56269;51.738;21.652;2023-05-21T05:37:17;8.68;;;3.47;;
69161;SDS011;56269;51.738;21.652;2023-05-21T05:39:45;7.45;;;3.05;;
69161;SDS011;56269;51.738;21.652;2023-05-21T05:42:11;7.82;;;3.00;;
69161;SDS011;56269;51.738;21.652;2023-05-21T05:44:37;7.47;;;2.70;;
69161;SDS011;56269;51.738;21.652;2023-05-21T05:47:03;6.50;;;3.00;;
69161;SDS011;56269;51.738;21.652;2023-05-21T05:49:33;8.20;;;3.20;;
69161;SDS011;56269;51.738;21.652;2023-05-21T05:51:59;7.22;;;3.25;;
69161;SDS011;56269;51.738;21.652;2023-05-21T05:54:25;6.95;;;3.22;;
69161;SDS011;56269;51.738;21.652;2023-05-21T05:56:52;6.88;;;3.30;;
69161;SDS011;56269;51.738;21.652;2023-05-21T05:59:18;6.97;;;2.97;;
69161;SDS011;56269;51.738;21.652;2023-05-21T06:01:44;12.23;;;3.03;;
69161;SDS011;56269;51.738;21.652;2023-05-21T06:04:10;8.63;;;3.30;;
69161;SDS011;56269;51.738;21.652;2023-05-21T06:06:37;6.57;;;3.03;;
69161;SDS011;56269;51.738;21.652;2023-05-21T06:09:03;10.02;;;3.13;;
69161;SDS011;56269;51.738;21.652;2023-05-21T06:11:29;5.63;;;2.50;;
69161;SDS011;56269;51.738;21.652;2023-05-21T06:13:55;5.72;;;2.67;;
69161;SDS011;56269;51.738;21.652;2023-05-21T06:16:25;7.47;;;2.72;;
69161;SDS011;56269;51.738;21.652;2023-05-21T06:18:52;8.90;;;3.20;;
69161;SDS011;56269;51.738;21.652;2023-05-21T06:21:18;6.70;;;3.05;;
69161;SDS011;56269;51.738;21.652;2023-05-21T06:23:45;7.67;;;3.00;;
69161;SDS011;56269;51.738;21.652;2023-05-21T06:26:11;7.50;;;3.05;;
69161;SDS011;56269;51.738;21.652;2023-05-21T06:28:37;4.72;;;2.03;;
69161;SDS011;56269;51.738;21.652;2023-05-21T06:31:04;6.93;;;2.97;;
69161;SDS011;56269;51.738;21.652;2023-05-21T06:33:30;7.68;;;3.13;;
69161;SDS011;56269;51.738;21.652;2023-05-21T06:35:56;7.13;;;2.83;;
69161;SDS011;56269;51.738;21.652;2023-05-21T06:38:22;6.78;;;3.00;;
69161;SDS011;56269;51.738;21.652;2023-05-21T06:40:48;8.00;;;3.08;;
69161;SDS011;56269;51.738;21.652;2023-05-21T06:43:15;10.32;;;3.10;;
69161;SDS011;56269;51.738;21.652;2023-05-21T06:45:41;7.32;;;3.10;;
69161;SDS011;56269;51.738;21.652;2023-05-21T06:48:07;6.87;;;2.47;;
69161;SDS011;56269;51.738;21.652;2023-05-21T06:50:33;6.05;;;2.90;;
69161;SDS011;56269;51.738;21.652;2023-05-21T06:53:00;6.68;;;3.05;;
69161;SDS011;56269;51.738;21.652;2023-05-21T06:55:26;7.97;;;2.92;;
69161;SDS011;56269;51.738;21.652;2023-05-21T06:57:52;6.15;;;3.00;;
69161;SDS011;56269;51.738;21.652;2023-05-21T07:00:18;6.37;;;3.20;;
69161;SDS011;56269;51.738;21.652;2023-05-21T07:02:45;6.57;;;3.00;;
69161;SDS011;56269;51.738;21.652;2023-05-21T07:05:11;6.10;;;3.03;;
69161;SDS011;56269;51.738;21.652;2023-05-21T07:07:37;6.90;;;2.78;;
69161;SDS011;56269;51.738;21.652;2023-05-21T07:10:04;9.73;;;3.10;;
69161;SDS011;56269;51.738;21.652;2023-05-21T07:12:30;6.53;;;2.80;;
69161;SDS011;56269;51.738;21.652;2023-05-21T07:14:57;8.15;;;3.10;;
69161;SDS011;56269;51.738;21.652;2023-05-21T07:17:23;5.70;;;2.65;;
69161;SDS011;56269;51.738;21.652;2023-05-21T07:19:49;6.00;;;3.00;;
69161;SDS011;56269;51.738;21.652;2023-05-21T07:22:15;6.20;;;2.90;;
69161;SDS011;56269;51.738;21.652;2023-05-21T07:24:43;6.27;;;3.13;;
69161;SDS011;56269;51.738;21.652;2023-05-21T07:27:09;5.80;;;2.92;;
69161;SDS011;56269;51.738;21.652;2023-05-21T07:29:35;7.30;;;3.08;;
69161;SDS011;56269;51.738;21.652;2023-05-21T07:32:01;7.90;;;3.03;;
69161;SDS011;56269;51.738;21.652;2023-05-21T07:34:28;8.23;;;3.00;;
69161;SDS011;56269;51.738;21.652;2023-05-21T07:36:54;7.80;;;2.80;;
69161;SDS011;56269;51.738;21.652;2023-05-21T07:39:20;8.80;;;3.00;;
69161;SDS011;56269;51.738;21.652;2023-05-21T07:41:46;9.68;;;3.00;;
69161;SDS011;56269;51.738;21.652;2023-05-21T07:44:12;6.18;;;2.65;;
69161;SDS011;56269;51.738;21.652;2023-05-21T07:46:39;7.03;;;2.63;;
69161;SDS011;56269;51.738;21.652;2023-05-21T07:49:05;6.40;;;2.57;;
69161;SDS011;56269;51.738;21.652;2023-05-21T07:51:31;7.65;;;2.72;;
69161;SDS011;56269;51.738;21.652;2023-05-21T07:53:58;7.60;;;2.90;;
69161;SDS011;56269;51.738;21.652;2023-05-21T07:56:24;7.95;;;2.85;;
69161;SDS011;56269;51.738;21.652;2023-05-21T07:58:51;6.13;;;2.58;;
69161;SDS011;56269;51.738;21.652;2023-05-21T08:01:18;5.37;;;2.47;;
69161;SDS011;56269;51.738;21.652;2023-05-21T08:03:44;5.50;;;2.35;;
69161;SDS011;56269;51.738;21.652;2023-05-21T08:06:10;6.90;;;2.58;;
69161;SDS011;56269;51.738;21.652;2023-05-21T08:08:37;7.63;;;2.63;;
69161;SDS011;56269;51.738;21.652;2023-05-21T08:11:03;10.68;;;2.60;;
69161;SDS011;56269;51.738;21.652;2023-05-21T08:13:29;5.83;;;2.73;;
69161;SDS011;56269;51.738;21.652;2023-05-21T08:15:55;6.93;;;2.45;;
69161;SDS011;56269;51.738;21.652;2023-05-21T08:18:21;7.55;;;2.75;;
69161;SDS011;56269;51.738;21.652;2023-05-21T08:20:48;9.48;;;2.53;;
69161;SDS011;56269;51.738;21.652;2023-05-21T08:23:15;6.72;;;2.60;;
69161;SDS011;56269;51.738;21.652;2023-05-21T08:25:41;7.60;;;2.90;;
69161;SDS011;56269;51.738;21.652;2023-05-21T08:28:07;6.68;;;2.58;;
69161;SDS011;56269;51.738;21.652;2023-05-21T08:30:34;5.93;;;2.65;;
69161;SDS011;56269;51.738;21.652;2023-05-21T08:33:00;5.10;;;2.47;;
69161;SDS011;56269;51.738;21.652;2023-05-21T08:35:27;8.18;;;2.70;;
69161;SDS011;56269;51.738;21.652;2023-05-21T08:37:53;5.83;;;2.13;;
69161;SDS011;56269;51.738;21.652;2023-05-21T08:40:21;9.50;;;2.70;;
69161;SDS011;56269;51.738;21.652;2023-05-21T08:42:48;5.05;;;2.50;;
69161;SDS011;56269;51.738;21.652;2023-05-21T08:45:16;6.43;;;2.70;;
69161;SDS011;56269;51.738;21.652;2023-05-21T08:47:46;7.72;;;2.60;;
69161;SDS011;56269;51.738;21.652;2023-05-21T08:50:13;7.50;;;2.80;;
69161;SDS011;56269;51.738;21.652;2023-05-21T08:52:41;7.22;;;2.60;;
69161;SDS011;56269;51.738;21.652;2023-05-21T08:55:08;7.07;;;2.40;;
69161;SDS011;56269;51.738;21.652;2023-05-21T08:57:35;8.82;;;2.50;;
69161;SDS011;56269;51.738;21.652;2023-05-21T09:00:02;6.03;;;2.60;;
69161;SDS011;56269;51.738;21.652;2023-05-21T09:02:31;5.40;;;2.37;;
69161;SDS011;56269;51.738;21.652;2023-05-21T09:04:59;5.47;;;2.40;;
69161;SDS011;56269;51.738;21.652;2023-05-21T09:07:28;5.68;;;2.42;;
69161;SDS011;56269;51.738;21.652;2023-05-21T09:12:24;6.68;;;2.38;;
69161;SDS011;56269;51.738;21.652;2023-05-21T09:14:52;5.37;;;2.20;;
69161;SDS011;56269;51.738;21.652;2023-05-21T09:17:19;5.68;;;2.30;;
69161;SDS011;56269;51.738;21.652;2023-05-21T09:22:41;6.05;;;2.47;;
69161;SDS011;56269;51.738;21.652;2023-05-21T09:25:10;6.47;;;2.45;;
69161;SDS011;56269;51.738;21.652;2023-05-21T09:27:37;5.60;;;2.30;;
69161;SDS011;56269;51.738;21.652;2023-05-21T09:30:07;6.57;;;2.30;;
69161;SDS011;56269;51.738;21.652;2023-05-21T09:32:36;4.82;;;2.13;;
69161;SDS011;56269;51.738;21.652;2023-05-21T09:35:10;5.43;;;2.40;;
69161;SDS011;56269;51.738;21.652;2023-05-21T09:37:43;5.85;;;2.40;;
69161;SDS011;56269;51.738;21.652;2023-05-21T09:40:12;5.30;;;2.40;;
69161;SDS011;56269;51.738;21.652;2023-05-21T09:42:47;6.05;;;2.50;;
69161;SDS011;56269;51.738;21.652;2023-05-21T09:45:20;7.30;;;2.45;;
69161;SDS011;56269;51.738;21.652;2023-05-21T09:47:48;5.40;;;2.30;;
69161;SDS011;56269;51.738;21.652;2023-05-21T09:50:19;5.03;;;2.22;;
69161;SDS011;56269;51.738;21.652;2023-05-21T09:52:50;4.80;;;1.63;;
69161;SDS011;56269;51.738;21.652;2023-05-21T09:55:18;6.82;;;2.20;;
69161;SDS011;56269;51.738;21.652;2023-05-21T09:57:47;5.65;;;2.10;;
69161;SDS011;56269;51.738;21.652;2023-05-21T10:00:18;5.03;;;2.20;;
69161;SDS011;56269;51.738;21.652;2023-05-21T10:02:46;5.10;;;2.00;;
69161;SDS011;56269;51.738;21.652;2023-05-21T10:05:14;7.03;;;2.40;;
69161;SDS011;56269;51.738;21.652;2023-05-21T10:08:00;5.72;;;1.80;;
69161;SDS011;56269;51.738;21.652;2023-05-21T10:10:27;11.07;;;2.47;;
69161;SDS011;56269;51.738;21.652;2023-05-21T10:12:59;6.50;;;2.65;;
69161;SDS011;56269;51.738;21.652;2023-05-21T10:15:30;5.85;;;2.10;;
69161;SDS011;56269;51.738;21.652;2023-05-21T10:18:00;5.57;;;2.17;;
69161;SDS011;56269;51.738;21.652;2023-05-21T10:20:29;5.38;;;2.20;;
69161;SDS011;56269;51.738;21.652;2023-05-21T10:22:59;6.25;;;2.40;;
69161;SDS011;56269;51.738;21.652;2023-05-21T10:25:26;5.57;;;2.30;;
69161;SDS011;56269;51.738;21.652;2023-05-21T10:27:54;8.80;;;2.88;;
69161;SDS011;56269;51.738;21.652;2023-05-21T10:30:20;5.77;;;2.10;;
69161;SDS011;56269;51.738;21.652;2023-05-21T10:32:48;5.65;;;2.08;;
69161;SDS011;56269;51.738;21.652;2023-05-21T10:35:15;6.38;;;2.08;;
69161;SDS011;56269;51.738;21.652;2023-05-21T10:37:42;5.28;;;2.22;;
69161;SDS011;56269;51.738;21.652;2023-05-21T10:40:10;6.57;;;2.08;;
69161;SDS011;56269;51.738;21.652;2023-05-21T10:45:35;5.70;;;1.90;;
69161;SDS011;56269;51.738;21.652;2023-05-21T11:01:36;6.90;;;2.50;;
69161;SDS011;56269;51.738;21.652;2023-05-21T11:04:03;6.35;;;2.25;;
69161;SDS011;56269;51.738;21.652;2023-05-21T11:06:32;7.32;;;2.25;;
69161;SDS011;56269;51.738;21.652;2023-05-21T11:09:11;10.23;;;2.60;;
69161;SDS011;56269;51.738;21.652;2023-05-21T11:11:39;5.68;;;2.33;;
69161;SDS011;56269;51.738;21.652;2023-05-21T11:14:27;7.10;;;2.25;;
69161;SDS011;56269;51.738;21.652;2023-05-21T11:16:53;6.82;;;2.30;;
69161;SDS011;56269;51.738;21.652;2023-05-21T11:19:25;5.32;;;2.30;;
69161;SDS011;56269;51.738;21.652;2023-05-21T11:21:58;7.40;;;2.20;;
69161;SDS011;56269;51.738;21.652;2023-05-21T11:24:25;5.22;;;2.22;;
69161;SDS011;56269;51.738;21.652;2023-05-21T11:29:24;6.07;;;2.20;;
69161;SDS011;56269;51.738;21.652;2023-05-21T11:31:58;9.23;;;2.15;;
69161;SDS011;56269;51.738;21.652;2023-05-21T11:34:42;6.23;;;2.20;;
69161;SDS011;56269;51.738;21.652;2023-05-21T11:39:48;5.75;;;2.30;;
69161;SDS011;56269;51.738;21.652;2023-05-21T11:44:55;6.47;;;2.20;;
69161;SDS011;56269;51.738;21.652;2023-05-21T11:47:23;6.97;;;2.10;;
69161;SDS011;56269;51.738;21.652;2023-05-21T11:49:54;6.97;;;2.10;;
69161;SDS011;56269;51.738;21.652;2023-05-21T11:52:21;5.63;;;1.90;;
69161;SDS011;56269;51.738;21.652;2023-05-21T11:54:52;8.93;;;2.10;;
69161;SDS011;56269;51.738;21.652;2023-05-21T11:57:21;5.95;;;2.25;;
69161;SDS011;56269;51.738;21.652;2023-05-21T11:59:51;6.23;;;2.10;;
69161;SDS011;56269;51.738;21.652;2023-05-21T12:02:20;4.63;;;1.90;;
69161;SDS011;56269;51.738;21.652;2023-05-21T12:04:48;5.57;;;2.15;;
69161;SDS011;56269;51.738;21.652;2023-05-21T12:07:18;5.80;;;2.17;;
69161;SDS011;56269;51.738;21.652;2023-05-21T12:09:46;4.97;;;1.90;;
69161;SDS011;56269;51.738;21.652;2023-05-21T12:12:14;5.80;;;2.13;;
69161;SDS011;56269;51.738;21.652;2023-05-21T12:14:44;5.22;;;2.05;;
69161;SDS011;56269;51.738;21.652;2023-05-21T12:17:14;8.40;;;2.15;;
69161;SDS011;56269;51.738;21.652;2023-05-21T12:19:41;4.82;;;1.75;;
69161;SDS011;56269;51.738;21.652;2023-05-21T12:22:08;3.83;;;1.50;;
69161;SDS011;56269;51.738;21.652;2023-05-21T12:24:35;5.53;;;1.83;;
69161;SDS011;56269;51.738;21.652;2023-05-21T12:27:03;6.70;;;2.08;;
69161;SDS011;56269;51.738;21.652;2023-05-21T12:29:41;4.72;;;1.98;;
69161;SDS011;56269;51.738;21.652;2023-05-21T12:32:09;4.47;;;1.90;;
69161;SDS011;56269;51.738;21.652;2023-05-21T12:34:41;4.90;;;1.83;;
69161;SDS011;56269;51.738;21.652;2023-05-21T12:37:13;5.53;;;1.87;;
69161;SDS011;56269;51.738;21.652;2023-05-21T12:39:46;4.95;;;1.90;;
69161;SDS011;56269;51.738;21.652;2023-05-21T12:42:13;5.22;;;2.10;;
69161;SDS011;56269;51.738;21.652;2023-05-21T12:44:45;4.70;;;1.80;;
69161;SDS011;56269;51.738;21.652;2023-05-21T12:47:12;5.50;;;2.10;;
69161;SDS011;56269;51.738;21.652;2023-05-21T12:49:40;4.23;;;1.77;;
69161;SDS011;56269;51.738;21.652;2023-05-21T12:52:08;5.30;;;1.80;;
69161;SDS011;56269;51.738;21.652;2023-05-21T12:54:36;5.50;;;1.80;;
69161;SDS011;56269;51.738;21.652;2023-05-21T13:02:14;5.43;;;2.00;;
69161;SDS011;56269;51.738;21.652;2023-05-21T13:04:41;5.45;;;1.90;;
69161;SDS011;56269;51.738;21.652;2023-05-21T13:07:07;6.00;;;2.00;;
69161;SDS011;56269;51.738;21.652;2023-05-21T13:09:33;4.55;;;1.80;;
69161;SDS011;56269;51.738;21.652;2023-05-21T13:11:59;4.97;;;1.90;;
69161;SDS011;56269;51.738;21.652;2023-05-21T13:14:26;5.30;;;2.10;;
69161;SDS011;56269;51.738;21.652;2023-05-21T13:16:52;5.97;;;2.20;;
69161;SDS011;56269;51.738;21.652;2023-05-21T13:19:18;4.50;;;1.90;;
69161;SDS011;56269;51.738;21.652;2023-05-21T13:21:44;4.75;;;2.00;;
69161;SDS011;56269;51.738;21.652;2023-05-21T13:24:11;5.28;;;1.90;;
69161;SDS011;56269;51.738;21.652;2023-05-21T13:26:37;5.33;;;2.03;;
69161;SDS011;56269;51.738;21.652;2023-05-21T13:29:03;6.47;;;1.85;;
69161;SDS011;56269;51.738;21.652;2023-05-21T13:31:29;5.95;;;2.20;;
69161;SDS011;56269;51.738;21.652;2023-05-21T13:33:56;6.10;;;1.92;;
69161;SDS011;56269;51.738;21.652;2023-05-21T13:36:22;6.17;;;2.10;;
69161;SDS011;56269;51.738;21.652;2023-05-21T13:38:48;5.95;;;1.70;;
69161;SDS011;56269;51.738;21.652;2023-05-21T13:41:14;5.18;;;1.65;;
69161;SDS011;56269;51.738;21.652;2023-05-21T13:43:41;6.80;;;1.75;;
69161;SDS011;56269;51.738;21.652;2023-05-21T13:46:07;4.28;;;1.80;;
69161;SDS011;56269;51.738;21.652;2023-05-21T13:48:34;6.60;;;2.10;;
69161;SDS011;56269;51.738;21.652;2023-05-21T13:51:00;5.18;;;2.10;;
69161;SDS011;56269;51.738;21.652;2023-05-21T13:53:26;6.25;;;1.90;;
69161;SDS011;56269;51.738;21.652;2023-05-21T13:55:53;4.32;;;1.85;;
69161;SDS011;56269;51.738;21.652;2023-05-21T13:58:20;5.22;;;2.10;;
69161;SDS011;56269;51.738;21.652;2023-05-21T14:00:46;4.97;;;1.83;;
69161;SDS011;56269;51.738;21.652;2023-05-21T14:03:12;5.03;;;1.85;;
69161;SDS011;56269;51.738;21.652;2023-05-21T14:05:38;6.10;;;2.00;;
69161;SDS011;56269;51.738;21.652;2023-05-21T14:08:04;5.35;;;2.00;;
69161;SDS011;56269;51.738;21.652;2023-05-21T14:10:31;5.82;;;2.05;;
69161;SDS011;56269;51.738;21.652;2023-05-21T14:12:57;6.90;;;2.10;;
69161;SDS011;56269;51.738;21.652;2023-05-21T14:15:23;8.70;;;2.10;;
69161;SDS011;56269;51.738;21.652;2023-05-21T14:17:49;5.38;;;2.00;;
69161;SDS011;56269;51.738;21.652;2023-05-21T14:20:16;4.90;;;2.05;;
69161;SDS011;56269;51.738;21.652;2023-05-21T14:22:44;5.43;;;2.03;;
69161;SDS011;56269;51.738;21.652;2023-05-21T14:25:10;4.80;;;1.90;;
69161;SDS011;56269;51.738;21.652;2023-05-21T14:27:37;5.90;;;1.90;;
69161;SDS011;56269;51.738;21.652;2023-05-21T14:30:03;6.60;;;2.00;;
69161;SDS011;56269;51.738;21.652;2023-05-21T14:32:30;4.63;;;1.60;;
69161;SDS011;56269;51.738;21.652;2023-05-21T14:34:56;4.70;;;1.80;;
69161;SDS011;56269;51.738;21.652;2023-05-21T14:37:24;4.80;;;2.00;;
69161;SDS011;56269;51.738;21.652;2023-05-21T14:39:50;6.45;;;2.03;;
69161;SDS011;56269;51.738;21.652;2023-05-21T14:42:16;4.82;;;1.65;;
69161;SDS011;56269;51.738;21.652;2023-05-21T14:44:42;4.82;;;2.08;;
69161;SDS011;56269;51.738;21.652;2023-05-21T14:47:08;4.57;;;2.00;;
69161;SDS011;56269;51.738;21.652;2023-05-21T14:49:35;5.17;;;2.20;;
69161;SDS011;56269;51.738;21.652;2023-05-21T14:52:01;6.43;;;2.20;;
69161;SDS011;56269;51.738;21.652;2023-05-21T14:54:27;6.68;;;2.00;;
69161;SDS011;56269;51.738;21.652;2023-05-21T14:56:54;4.78;;;2.10;;
69161;SDS011;56269;51.738;21.652;2023-05-21T14:59:20;5.97;;;2.20;;
69161;SDS011;56269;51.738;21.652;2023-05-21T15:01:46;5.47;;;2.13;;
69161;SDS011;56269;51.738;21.652;2023-05-21T15:04:12;5.47;;;2.35;;
69161;SDS011;56269;51.738;21.652;2023-05-21T15:06:38;7.47;;;2.35;;
69161;SDS011;56269;51.738;21.652;2023-05-21T15:09:04;8.55;;;2.10;;
69161;SDS011;56269;51.738;21.652;2023-05-21T15:11:31;5.85;;;2.05;;